Celebrity Infinity — 9HJD9 — position and weather

sailwx.info

Track history (hours):
 
Tides and Currents Weather Stations Pressure Air Temp Water Temp Dewpoint Dewpoint Depression Visibility Wind Speed Wind Dir Waves Ship Positions

Celebrity Infinity

Last reported at 2020-Aug-09 05:28 UTC. Time now 2020-Aug-09 05:51 UTC.
Position N 37°05' E 023°14'.

Length 294 m; draft 8.3 m.

Type: Passenger vessel. MMSI: 249048000.

Date/timePositionNaut miles runAvg speedWind from/ knotsBaromVisibWave heightAir tempDewpointWater temp
2020-Aug-09 05:28N 37°05' E 023°14'7 1.1
2020-Aug-08 23:20N 36°58' E 023°15'3 1.5
2020-Aug-08 21:27N 36°55' E 023°15'6 1.4
2020-Aug-08 17:14N 37°01' E 023°15'2 0.2
2020-Aug-08 09:02N 37°03' E 023°15'0 0.0
2020-Aug-08 08:58N 37°03' E 023°15'0 0.1
2020-Aug-08 07:45N 37°03' E 023°14'2 0.4
2020-Aug-08 03:59N 37°01' E 023°14'1 1.2
2020-Aug-08 03:17N 37°00' E 023°14'3 1.3
2020-Aug-08 00:55N 36°57' E 023°14'1 0.3
2020-Aug-07 21:55N 36°58' E 023°13'4 0.4
2020-Aug-07 12:40N 37°01' E 023°16'0 1.3
2020-Aug-07 12:29N 37°01' E 023°16'3 1.3
2020-Aug-07 10:29N 37°04' E 023°15'1 1.4
2020-Aug-07 09:32N 37°05' E 023°15'2 0.5
2020-Aug-07 06:17N 37°03' E 023°15'1 0.6
2020-Aug-07 04:58N 37°03' E 023°15'0 0.6
2020-Aug-07 04:22N 37°02' E 023°16'3 0.9
2020-Aug-07 00:44N 36°59' E 023°14'4 0.7
2020-Aug-06 19:56N 37°03' E 023°15'1 0.2
2020-Aug-06 13:28N 37°04' E 023°16'2 0.3
2020-Aug-06 06:00N 37°02' E 023°16'0 0.4
2020-Aug-06 05:25N 37°02' E 023°16'0 0.3
2020-Aug-06 04:20N 37°02' E 023°16'0 0.5
2020-Aug-06 04:00N 37°02' E 023°16'2 0.3
2020-Aug-05 22:29N 37°02' E 023°15'1 0.3
2020-Aug-05 19:56N 37°01' E 023°14'1 0.5
2020-Aug-05 17:15N 37°01' E 023°16'2 0.7
2020-Aug-05 13:56N 37°03' E 023°15'2 0.4
2020-Aug-05 09:04N 37°01' E 023°15'2 0.8
2020-Aug-05 06:29N 37°02' E 023°18'1 0.3
2020-Aug-05 04:30N 37°02' E 023°17'1 0.2
2020-Aug-05 00:04N 37°03' E 023°17'0 0.3
2020-Aug-04 22:30N 37°03' E 023°16'1 0.3
2020-Aug-04 19:59N 37°02' E 023°16'1 0.2
2020-Aug-04 16:59N 37°02' E 023°15'2 0.2
2020-Aug-04 09:25N 37°01' E 023°14'0 0.6
2020-Aug-04 08:50N 37°01' E 023°13'0 0.5
2020-Aug-04 08:27N 37°01' E 023°13'1 0.3
2020-Aug-04 04:40N 37°01' E 023°15'0 0.2
2020-Aug-04 03:40N 37°01' E 023°15'1 0.2
2020-Aug-03 22:30N 36°60' E 023°15'1 0.3
2020-Aug-03 17:14N 36°59' E 023°14'1 0.2
2020-Aug-03 15:03N 36°58' E 023°13'0 0.2
2020-Aug-03 12:44N 36°58' E 023°14'2 0.4
2020-Aug-03 07:00N 36°60' E 023°15'1 0.6
2020-Aug-03 05:21N 36°60' E 023°16'1 0.4
2020-Aug-03 03:20N 36°60' E 023°15'1 0.1
2020-Aug-02 17:01N 36°60' E 023°14'1 0.3
2020-Aug-02 13:30N 36°60' E 023°15'1 1.7
2020-Aug-02 13:00N 36°59' E 023°14'1 1.8
2020-Aug-02 12:30N 36°59' E 023°13'1 0.4
2020-Aug-02 10:30N 36°59' E 023°14'3 0.5
2020-Aug-02 04:55N 37°02' E 023°14'1 1.5
2020-Aug-02 04:05N 37°00' E 023°14'0 1.4
2020-Aug-02 04:00N 37°00' E 023°14'3 1.3
2020-Aug-02 01:57N 36°58' E 023°14'0 0.2
2020-Aug-02 00:55N 36°58' E 023°14'4 0.4
2020-Aug-01 15:41N 37°01' E 023°15'1 0.5
2020-Aug-01 13:52N 37°02' E 023°14'2 0.5
2020-Aug-01 09:12N 36°60' E 023°15'2 0.7
2020-Aug-01 05:30N 36°58' E 023°17'3 1.1
2020-Aug-01 02:28N 37°01' E 023°16'2 0.8
2020-Aug-01 00:14N 37°03' E 023°15'1 0.2
2020-Jul-31 21:08N 37°03' E 023°15'2 0.5
2020-Jul-31 17:41N 37°02' E 023°16'1 0.2
2020-Jul-31 11:35N 37°03' E 023°16'3 0.1
2020-Jul-30 10:30N 37°04' E 023°12'1 0.5
2020-Jul-30 09:00N 37°05' E 023°13'0 1.0
2020-Jul-30 08:30N 37°05' E 023°13'  
Track history (hours):
 
Tides and Currents Weather Stations Pressure Air Temp Water Temp Dewpoint Dewpoint Depression Visibility Wind Speed Wind Dir Waves Ship Positions

Celebrity Infinity

Last reported at 2020-Aug-09 05:28 UTC. Time now 2020-Aug-09 05:51 UTC.
Position N 37°05' E 023°14'.

Length 294 m; draft 8.3 m.

Type: Passenger vessel. MMSI: 249048000.

Date/timePositionNaut miles runAvg speedWind from/ knotsBaromVisibWave heightAir tempDewpointWater temp
2020-Aug-09 05:28N 37°05' E 023°14'7 1.1
2020-Aug-08 23:20N 36°58' E 023°15'3 1.5
2020-Aug-08 21:27N 36°55' E 023°15'6 1.4
2020-Aug-08 17:14N 37°01' E 023°15'2 0.2
2020-Aug-08 09:02N 37°03' E 023°15'0 0.0
2020-Aug-08 08:58N 37°03' E 023°15'0 0.1
2020-Aug-08 07:45N 37°03' E 023°14'2 0.4
2020-Aug-08 03:59N 37°01' E 023°14'1 1.2
2020-Aug-08 03:17N 37°00' E 023°14'3 1.3
2020-Aug-08 00:55N 36°57' E 023°14'1 0.3
2020-Aug-07 21:55N 36°58' E 023°13'4 0.4
2020-Aug-07 12:40N 37°01' E 023°16'0 1.3
2020-Aug-07 12:29N 37°01' E 023°16'3 1.3
2020-Aug-07 10:29N 37°04' E 023°15'1 1.4
2020-Aug-07 09:32N 37°05' E 023°15'2 0.5
2020-Aug-07 06:17N 37°03' E 023°15'1 0.6
2020-Aug-07 04:58N 37°03' E 023°15'0 0.6
2020-Aug-07 04:22N 37°02' E 023°16'3 0.9
2020-Aug-07 00:44N 36°59' E 023°14'4 0.7
2020-Aug-06 19:56N 37°03' E 023°15'1 0.2
2020-Aug-06 13:28N 37°04' E 023°16'2 0.3
2020-Aug-06 06:00N 37°02' E 023°16'0 0.4
2020-Aug-06 05:25N 37°02' E 023°16'0 0.3
2020-Aug-06 04:20N 37°02' E 023°16'0 0.5
2020-Aug-06 04:00N 37°02' E 023°16'2 0.3
2020-Aug-05 22:29N 37°02' E 023°15'1 0.3
2020-Aug-05 19:56N 37°01' E 023°14'1 0.5
2020-Aug-05 17:15N 37°01' E 023°16'2 0.7
2020-Aug-05 13:56N 37°03' E 023°15'2 0.4
2020-Aug-05 09:04N 37°01' E 023°15'2 0.8
2020-Aug-05 06:29N 37°02' E 023°18'1 0.3
2020-Aug-05 04:30N 37°02' E 023°17'1 0.2
2020-Aug-05 00:04N 37°03' E 023°17'0 0.3
2020-Aug-04 22:30N 37°03' E 023°16'1 0.3
2020-Aug-04 19:59N 37°02' E 023°16'1 0.2
2020-Aug-04 16:59N 37°02' E 023°15'2 0.2
2020-Aug-04 09:25N 37°01' E 023°14'0 0.6
2020-Aug-04 08:50N 37°01' E 023°13'0 0.5
2020-Aug-04 08:27N 37°01' E 023°13'1 0.3
2020-Aug-04 04:40N 37°01' E 023°15'0 0.2
2020-Aug-04 03:40N 37°01' E 023°15'1 0.2
2020-Aug-03 22:30N 36°60' E 023°15'1 0.3
2020-Aug-03 17:14N 36°59' E 023°14'1 0.2
2020-Aug-03 15:03N 36°58' E 023°13'0 0.2
2020-Aug-03 12:44N 36°58' E 023°14'2 0.4
2020-Aug-03 07:00N 36°60' E 023°15'1 0.6
2020-Aug-03 05:21N 36°60' E 023°16'1 0.4
2020-Aug-03 03:20N 36°60' E 023°15'1 0.1
2020-Aug-02 17:01N 36°60' E 023°14'1 0.3
2020-Aug-02 13:30N 36°60' E 023°15'1 1.7
2020-Aug-02 13:00N 36°59' E 023°14'1 1.8
2020-Aug-02 12:30N 36°59' E 023°13'1 0.4
2020-Aug-02 10:30N 36°59' E 023°14'3 0.5
2020-Aug-02 04:55N 37°02' E 023°14'1 1.5
2020-Aug-02 04:05N 37°00' E 023°14'0 1.4
2020-Aug-02 04:00N 37°00' E 023°14'3 1.3
2020-Aug-02 01:57N 36°58' E 023°14'0 0.2
2020-Aug-02 00:55N 36°58' E 023°14'4 0.4
2020-Aug-01 15:41N 37°01' E 023°15'1 0.5
2020-Aug-01 13:52N 37°02' E 023°14'2 0.5
2020-Aug-01 09:12N 36°60' E 023°15'2 0.7
2020-Aug-01 05:30N 36°58' E 023°17'3 1.1
2020-Aug-01 02:28N 37°01' E 023°16'2 0.8
2020-Aug-01 00:14N 37°03' E 023°15'1 0.2
2020-Jul-31 21:08N 37°03' E 023°15'2 0.5
2020-Jul-31 17:41N 37°02' E 023°16'1 0.2
2020-Jul-31 11:35N 37°03' E 023°16'3 0.1
2020-Jul-30 10:30N 37°04' E 023°12'1 0.5
2020-Jul-30 09:00N 37°05' E 023°13'0 1.0
2020-Jul-30 08:30N 37°05' E 023°13'  

Dump ship's entire track history